sensor_id;sensor_type;location;lat;lon;timestamp;pressure;altitude;pressure_sealevel;temperature;humidity
63009;BME280;49099;28.428;-16.488;2023-09-08T00:00:17;98613.28;;;25.33;47.25
63009;BME280;49099;28.428;-16.488;2023-09-08T00:03:05;98614.84;;;25.34;47.73
63009;BME280;49099;28.428;-16.488;2023-09-08T00:05:52;98617.94;;;25.32;48.50
63009;BME280;49099;28.428;-16.488;2023-09-08T00:08:40;98615.59;;;25.31;48.82
63009;BME280;49099;28.428;-16.488;2023-09-08T00:11:28;98604.72;;;25.31;49.27
63009;BME280;49099;28.428;-16.488;2023-09-08T00:14:15;98605.88;;;25.30;49.33
63009;BME280;49099;28.428;-16.488;2023-09-08T00:17:03;98600.06;;;25.31;49.54
63009;BME280;49099;28.428;-16.488;2023-09-08T00:19:51;98601.66;;;25.32;49.66
63009;BME280;49099;28.428;-16.488;2023-09-08T00:22:39;98600.00;;;25.27;48.99
63009;BME280;49099;28.428;-16.488;2023-09-08T00:25:26;98589.84;;;25.24;48.47
63009;BME280;49099;28.428;-16.488;2023-09-08T00:28:14;98585.16;;;25.21;48.38
63009;BME280;49099;28.428;-16.488;2023-09-08T00:31:02;98583.66;;;25.24;47.87
63009;BME280;49099;28.428;-16.488;2023-09-08T00:33:49;98579.84;;;25.28;48.07
63009;BME280;49099;28.428;-16.488;2023-09-08T00:36:37;98576.78;;;25.30;47.15
63009;BME280;49099;28.428;-16.488;2023-09-08T00:39:25;98572.00;;;25.23;46.93
63009;BME280;49099;28.428;-16.488;2023-09-08T00:42:12;98570.44;;;25.22;47.44
63009;BME280;49099;28.428;-16.488;2023-09-08T00:45:00;98571.28;;;25.26;48.01
63009;BME280;49099;28.428;-16.488;2023-09-08T00:47:47;98576.78;;;25.30;48.05
63009;BME280;49099;28.428;-16.488;2023-09-08T00:50:36;98571.41;;;25.34;48.41
63009;BME280;49099;28.428;-16.488;2023-09-08T00:53:25;98570.75;;;25.40;48.15
63009;BME280;49099;28.428;-16.488;2023-09-08T00:56:12;98567.31;;;25.43;48.56
63009;BME280;49099;28.428;-16.488;2023-09-08T00:59:00;98570.91;;;25.47;47.80
63009;BME280;49099;28.428;-16.488;2023-09-08T01:01:49;98570.81;;;25.44;47.13
63009;BME280;49099;28.428;-16.488;2023-09-08T01:04:37;98564.97;;;25.42;47.83
63009;BME280;49099;28.428;-16.488;2023-09-08T01:07:30;98563.78;;;25.39;47.97
63009;BME280;49099;28.428;-16.488;2023-09-08T01:10:19;98558.25;;;25.36;47.57
63009;BME280;49099;28.428;-16.488;2023-09-08T01:13:06;98557.41;;;25.32;48.47
63009;BME280;49099;28.428;-16.488;2023-09-08T01:15:54;98550.84;;;25.33;47.96
63009;BME280;49099;28.428;-16.488;2023-09-08T01:18:42;98541.84;;;25.28;47.64
63009;BME280;49099;28.428;-16.488;2023-09-08T01:27:58;98545.66;;;25.24;47.64
63009;BME280;49099;28.428;-16.488;2023-09-08T01:30:48;98548.00;;;25.25;47.80
63009;BME280;49099;28.428;-16.488;2023-09-08T01:33:37;98542.28;;;25.31;48.60
63009;BME280;49099;28.428;-16.488;2023-09-08T01:36:24;98547.72;;;25.31;47.37
63009;BME280;49099;28.428;-16.488;2023-09-08T01:39:12;98544.44;;;25.21;47.63
63009;BME280;49099;28.428;-16.488;2023-09-08T01:42:00;98538.56;;;25.19;45.56
63009;BME280;49099;28.428;-16.488;2023-09-08T01:44:47;98556.78;;;25.19;47.88
63009;BME280;49099;28.428;-16.488;2023-09-08T01:47:35;98554.94;;;25.23;48.03
63009;BME280;49099;28.428;-16.488;2023-09-08T01:50:23;98558.00;;;25.21;47.43
63009;BME280;49099;28.428;-16.488;2023-09-08T01:53:12;98554.84;;;25.19;47.42
63009;BME280;49099;28.428;-16.488;2023-09-08T01:55:59;98547.84;;;25.18;47.19
63009;BME280;49099;28.428;-16.488;2023-09-08T01:58:47;98551.72;;;25.17;47.18
63009;BME280;49099;28.428;-16.488;2023-09-08T02:01:34;98552.50;;;25.18;47.56
63009;BME280;49099;28.428;-16.488;2023-09-08T02:04:23;98548.63;;;25.19;47.74
63009;BME280;49099;28.428;-16.488;2023-09-08T02:07:10;98553.28;;;25.18;48.08
63009;BME280;49099;28.428;-16.488;2023-09-08T02:09:58;98549.72;;;25.14;48.02
63009;BME280;49099;28.428;-16.488;2023-09-08T02:12:46;98564.00;;;25.11;48.17
63009;BME280;49099;28.428;-16.488;2023-09-08T02:15:35;98561.59;;;25.06;47.82
63009;BME280;49099;28.428;-16.488;2023-09-08T02:18:25;98554.56;;;25.05;48.07
63009;BME280;49099;28.428;-16.488;2023-09-08T02:21:12;98554.94;;;25.04;47.50
63009;BME280;49099;28.428;-16.488;2023-09-08T02:24:00;98557.66;;;25.04;47.71
63009;BME280;49099;28.428;-16.488;2023-09-08T02:26:48;98552.22;;;25.04;47.45
63009;BME280;49099;28.428;-16.488;2023-09-08T02:29:35;98552.63;;;25.06;47.65
63009;BME280;49099;28.428;-16.488;2023-09-08T02:32:23;98550.38;;;25.08;47.45
63009;BME280;49099;28.428;-16.488;2023-09-08T02:35:11;98550.78;;;25.10;47.38
63009;BME280;49099;28.428;-16.488;2023-09-08T02:37:58;98547.72;;;25.11;47.69
63009;BME280;49099;28.428;-16.488;2023-09-08T02:40:46;98547.03;;;25.14;47.82
63009;BME280;49099;28.428;-16.488;2023-09-08T02:43:33;98543.84;;;25.12;47.96
63009;BME280;49099;28.428;-16.488;2023-09-08T02:46:21;98533.00;;;25.12;47.46
63009;BME280;49099;28.428;-16.488;2023-09-08T02:49:09;98534.16;;;25.11;47.55
63009;BME280;49099;28.428;-16.488;2023-09-08T02:51:56;98535.25;;;25.07;47.91
63009;BME280;49099;28.428;-16.488;2023-09-08T02:54:44;98537.59;;;25.08;47.62
63009;BME280;49099;28.428;-16.488;2023-09-08T02:57:32;98538.75;;;25.07;47.99
63009;BME280;49099;28.428;-16.488;2023-09-08T03:00:20;98531.22;;;25.00;47.55
63009;BME280;49099;28.428;-16.488;2023-09-08T03:03:10;98527.25;;;24.98;47.49
63009;BME280;49099;28.428;-16.488;2023-09-08T03:05:57;98527.72;;;25.00;48.06
63009;BME280;49099;28.428;-16.488;2023-09-08T03:08:50;98532.00;;;25.01;47.81
63009;BME280;49099;28.428;-16.488;2023-09-08T03:11:38;98526.56;;;25.01;47.84
63009;BME280;49099;28.428;-16.488;2023-09-08T03:14:25;98516.50;;;25.01;47.87
63009;BME280;49099;28.428;-16.488;2023-09-08T03:17:13;98521.59;;;25.03;48.20
63009;BME280;49099;28.428;-16.488;2023-09-08T03:20:00;98516.50;;;25.01;48.61
63009;BME280;49099;28.428;-16.488;2023-09-08T03:22:48;98513.00;;;25.01;48.28
63009;BME280;49099;28.428;-16.488;2023-09-08T03:25:36;98505.56;;;24.98;48.38
63009;BME280;49099;28.428;-16.488;2023-09-08T03:28:23;98503.22;;;24.96;48.42
63009;BME280;49099;28.428;-16.488;2023-09-08T03:31:11;98511.72;;;24.95;48.78
63009;BME280;49099;28.428;-16.488;2023-09-08T03:33:58;98504.78;;;24.97;48.66
63009;BME280;49099;28.428;-16.488;2023-09-08T03:36:46;98496.44;;;24.87;47.68
63009;BME280;49099;28.428;-16.488;2023-09-08T03:39:34;98502.00;;;24.74;48.06
63009;BME280;49099;28.428;-16.488;2023-09-08T03:42:22;98492.28;;;24.73;48.59
63009;BME280;49099;28.428;-16.488;2023-09-08T03:45:10;98499.00;;;24.80;48.50
63009;BME280;49099;28.428;-16.488;2023-09-08T03:47:57;98499.88;;;24.84;48.83
63009;BME280;49099;28.428;-16.488;2023-09-08T03:50:45;98494.44;;;24.84;48.35
63009;BME280;49099;28.428;-16.488;2023-09-08T03:53:32;98488.16;;;24.80;48.38
63009;BME280;49099;28.428;-16.488;2023-09-08T03:56:21;98497.88;;;24.81;48.49
63009;BME280;49099;28.428;-16.488;2023-09-08T03:59:08;98501.34;;;24.81;48.69
63009;BME280;49099;28.428;-16.488;2023-09-08T04:01:56;98500.88;;;24.76;48.90
63009;BME280;49099;28.428;-16.488;2023-09-08T04:04:47;98516.84;;;24.81;49.47
63009;BME280;49099;28.428;-16.488;2023-09-08T04:07:34;98512.28;;;24.85;49.05
63009;BME280;49099;28.428;-16.488;2023-09-08T04:10:22;98521.72;;;24.91;49.04
63009;BME280;49099;28.428;-16.488;2023-09-08T04:13:10;98521.00;;;24.94;49.10
63009;BME280;49099;28.428;-16.488;2023-09-08T04:15:57;98512.44;;;24.92;49.48
63009;BME280;49099;28.428;-16.488;2023-09-08T04:18:45;98522.38;;;24.84;49.19
63009;BME280;49099;28.428;-16.488;2023-09-08T04:21:32;98520.44;;;24.85;49.90
63009;BME280;49099;28.428;-16.488;2023-09-08T04:24:20;98522.38;;;24.84;49.66
63009;BME280;49099;28.428;-16.488;2023-09-08T04:27:08;98518.41;;;24.82;49.23
63009;BME280;49099;28.428;-16.488;2023-09-08T04:30:01;98521.50;;;24.80;49.39
63009;BME280;49099;28.428;-16.488;2023-09-08T04:32:50;98516.44;;;24.79;49.31
63009;BME280;49099;28.428;-16.488;2023-09-08T04:35:37;98515.28;;;24.80;48.97
63009;BME280;49099;28.428;-16.488;2023-09-08T04:38:25;98516.84;;;24.81;49.06
63009;BME280;49099;28.428;-16.488;2023-09-08T04:41:13;98518.88;;;24.84;49.23
63009;BME280;49099;28.428;-16.488;2023-09-08T04:44:00;98520.06;;;24.86;48.86
63009;BME280;49099;28.428;-16.488;2023-09-08T04:46:48;98509.16;;;24.83;49.27
63009;BME280;49099;28.428;-16.488;2023-09-08T04:49:36;98523.00;;;24.78;49.36
63009;BME280;49099;28.428;-16.488;2023-09-08T04:52:24;98523.00;;;24.78;49.63
63009;BME280;49099;28.428;-16.488;2023-09-08T04:55:12;98520.28;;;24.78;49.80
63009;BME280;49099;28.428;-16.488;2023-09-08T04:58:00;98514.50;;;24.79;49.14
63009;BME280;49099;28.428;-16.488;2023-09-08T05:00:47;98521.50;;;24.80;49.20
63009;BME280;49099;28.428;-16.488;2023-09-08T05:03:35;98519.56;;;24.81;49.37
63009;BME280;49099;28.428;-16.488;2023-09-08T05:06:23;98525.63;;;24.74;49.28
63009;BME280;49099;28.428;-16.488;2023-09-08T05:09:11;98528.00;;;24.76;49.48
63009;BME280;49099;28.428;-16.488;2023-09-08T05:11:58;98524.41;;;24.71;49.59
63009;BME280;49099;28.428;-16.488;2023-09-08T05:14:47;98529.84;;;24.71;49.69
63009;BME280;49099;28.428;-16.488;2023-09-08T05:17:34;98530.56;;;24.68;50.39
63009;BME280;49099;28.428;-16.488;2023-09-08T05:20:23;98529.00;;;24.67;50.54
63009;BME280;49099;28.428;-16.488;2023-09-08T05:23:10;98533.28;;;24.68;50.37
63009;BME280;49099;28.428;-16.488;2023-09-08T05:25:59;98532.13;;;24.69;50.79
63009;BME280;49099;28.428;-16.488;2023-09-08T05:28:47;98526.00;;;24.72;50.54
63009;BME280;49099;28.428;-16.488;2023-09-08T05:31:34;98525.63;;;24.74;50.87
63009;BME280;49099;28.428;-16.488;2023-09-08T05:34:22;98531.50;;;24.76;50.85
63009;BME280;49099;28.428;-16.488;2023-09-08T05:37:09;98527.66;;;24.77;50.46
63009;BME280;49099;28.428;-16.488;2023-09-08T05:39:57;98532.97;;;24.73;50.96
63009;BME280;49099;28.428;-16.488;2023-09-08T05:42:45;98536.84;;;24.72;50.33
63009;BME280;49099;28.428;-16.488;2023-09-08T05:45:32;98536.84;;;24.72;50.52
63009;BME280;49099;28.428;-16.488;2023-09-08T05:48:20;98535.63;;;24.70;50.45
63009;BME280;49099;28.428;-16.488;2023-09-08T05:51:07;98542.25;;;24.72;50.86
63009;BME280;49099;28.428;-16.488;2023-09-08T05:53:55;98542.25;;;24.72;50.65
63009;BME280;49099;28.428;-16.488;2023-09-08T05:56:44;98551.53;;;24.71;50.49
63009;BME280;49099;28.428;-16.488;2023-09-08T05:59:31;98551.53;;;24.71;50.62
63009;BME280;49099;28.428;-16.488;2023-09-08T06:02:19;98550.41;;;24.72;50.79
63009;BME280;49099;28.428;-16.488;2023-09-08T06:05:06;98549.97;;;24.70;50.69
63009;BME280;49099;28.428;-16.488;2023-09-08T06:07:54;98553.84;;;24.69;50.53
63009;BME280;49099;28.428;-16.488;2023-09-08T06:10:53;98566.19;;;24.67;50.37
63009;BME280;49099;28.428;-16.488;2023-09-08T06:13:41;98556.81;;;24.64;50.48
63009;BME280;49099;28.428;-16.488;2023-09-08T06:16:29;98559.09;;;24.62;50.27
63009;BME280;49099;28.428;-16.488;2023-09-08T06:19:17;98551.25;;;24.57;50.18
63009;BME280;49099;28.428;-16.488;2023-09-08T06:22:04;98560.50;;;24.56;50.04
63009;BME280;49099;28.428;-16.488;2023-09-08T06:24:52;98559.81;;;24.59;50.10
63009;BME280;49099;28.428;-16.488;2023-09-08T06:27:39;98556.41;;;24.62;49.85
63009;BME280;49099;28.428;-16.488;2023-09-08T06:30:27;98549.41;;;24.61;50.28
63009;BME280;49099;28.428;-16.488;2023-09-08T06:33:15;98554.41;;;24.59;49.30
63009;BME280;49099;28.428;-16.488;2023-09-08T06:36:02;98558.94;;;24.55;48.87
63009;BME280;49099;28.428;-16.488;2023-09-08T06:38:50;98553.09;;;24.53;49.81
63009;BME280;49099;28.428;-16.488;2023-09-08T06:41:38;98554.25;;;24.52;48.86
63009;BME280;49099;28.428;-16.488;2023-09-08T06:44:26;98548.72;;;24.49;49.35
63009;BME280;49099;28.428;-16.488;2023-09-08T06:47:13;98561.84;;;24.47;48.94
63009;BME280;49099;28.428;-16.488;2023-09-08T06:50:01;98560.72;;;24.48;49.22
63009;BME280;49099;28.428;-16.488;2023-09-08T06:52:49;98570.25;;;24.41;48.81
63009;BME280;49099;28.428;-16.488;2023-09-08T06:55:37;98566.50;;;24.46;49.02
63009;BME280;49099;28.428;-16.488;2023-09-08T06:58:27;98568.50;;;24.49;49.36
63009;BME280;49099;28.428;-16.488;2023-09-08T07:01:14;98574.34;;;24.51;49.29
63009;BME280;49099;28.428;-16.488;2023-09-08T07:04:03;98573.91;;;24.49;49.07
63009;BME280;49099;28.428;-16.488;2023-09-08T07:06:50;98570.84;;;24.51;49.04
63009;BME280;49099;28.428;-16.488;2023-09-08T07:09:41;98558.44;;;24.50;49.56
63009;BME280;49099;28.428;-16.488;2023-09-08T07:12:29;98565.78;;;24.49;49.19
63009;BME280;49099;28.428;-16.488;2023-09-08T07:15:17;98565.78;;;24.49;49.38
63009;BME280;49099;28.428;-16.488;2023-09-08T07:18:05;98568.13;;;24.51;48.53
63009;BME280;49099;28.428;-16.488;2023-09-08T07:20:52;98564.00;;;24.57;48.55
63009;BME280;49099;28.428;-16.488;2023-09-08T07:23:40;98566.81;;;24.60;48.48
63009;BME280;49099;28.428;-16.488;2023-09-08T07:26:28;98555.97;;;24.60;48.53
63009;BME280;49099;28.428;-16.488;2023-09-08T07:29:15;98552.97;;;24.65;48.36
63009;BME280;49099;28.428;-16.488;2023-09-08T07:32:03;98552.28;;;24.68;48.79
63009;BME280;49099;28.428;-16.488;2023-09-08T07:34:51;98558.53;;;24.72;48.31
63009;BME280;49099;28.428;-16.488;2023-09-08T07:37:43;98561.66;;;24.74;48.33
63009;BME280;49099;28.428;-16.488;2023-09-08T07:40:34;98556.25;;;24.74;48.50
63009;BME280;49099;28.428;-16.488;2023-09-08T07:43:22;98560.25;;;24.81;48.63
63009;BME280;49099;28.428;-16.488;2023-09-08T07:46:10;98561.91;;;24.85;48.45
63009;BME280;49099;28.428;-16.488;2023-09-08T07:49:00;98554.13;;;24.84;47.94
63009;BME280;49099;28.428;-16.488;2023-09-08T07:51:48;98562.97;;;24.81;48.46
63009;BME280;49099;28.428;-16.488;2023-09-08T07:54:35;98561.81;;;24.82;48.61
63009;BME280;49099;28.428;-16.488;2023-09-08T07:57:23;98569.97;;;24.82;49.09
63009;BME280;49099;28.428;-16.488;2023-09-08T08:00:11;98565.69;;;24.81;49.57
63009;BME280;49099;28.428;-16.488;2023-09-08T08:02:59;98566.91;;;24.83;49.66
63009;BME280;49099;28.428;-16.488;2023-09-08T08:05:47;98559.19;;;24.85;49.43
63009;BME280;49099;28.428;-16.488;2023-09-08T08:08:35;98564.25;;;24.87;50.79
63009;BME280;49099;28.428;-16.488;2023-09-08T08:11:25;98563.31;;;24.79;50.77
63009;BME280;49099;28.428;-16.488;2023-09-08T08:14:13;98564.13;;;24.80;51.22
63009;BME280;49099;28.428;-16.488;2023-09-08T08:17:01;98569.69;;;24.87;51.21
63009;BME280;49099;28.428;-16.488;2023-09-08T08:19:48;98574.84;;;24.92;51.26
63009;BME280;49099;28.428;-16.488;2023-09-08T08:22:37;98572.97;;;24.96;51.04
63009;BME280;49099;28.428;-16.488;2023-09-08T08:25:24;98580.84;;;25.01;51.54
63009;BME280;49099;28.428;-16.488;2023-09-08T08:28:12;98588.41;;;24.92;51.94
63009;BME280;49099;28.428;-16.488;2023-09-08T08:30:59;98582.63;;;24.93;51.33
63009;BME280;49099;28.428;-16.488;2023-09-08T08:33:47;98589.97;;;24.93;51.89
63009;BME280;49099;28.428;-16.488;2023-09-08T08:36:35;98589.81;;;24.86;51.12
63009;BME280;49099;28.428;-16.488;2023-09-08T08:39:22;98590.97;;;24.85;51.09
63009;BME280;49099;28.428;-16.488;2023-09-08T08:42:10;98597.53;;;24.84;51.01
63009;BME280;49099;28.428;-16.488;2023-09-08T08:44:58;98599.25;;;24.92;50.66
63009;BME280;49099;28.428;-16.488;2023-09-08T08:47:46;98597.91;;;25.01;50.04
63009;BME280;49099;28.428;-16.488;2023-09-08T08:50:37;98598.00;;;25.05;49.65
63009;BME280;49099;28.428;-16.488;2023-09-08T08:53:27;98597.34;;;25.12;49.08
63009;BME280;49099;28.428;-16.488;2023-09-08T08:56:16;98598.28;;;25.19;47.65
63009;BME280;49099;28.428;-16.488;2023-09-08T08:59:06;98602.34;;;25.29;47.50
63009;BME280;49099;28.428;-16.488;2023-09-08T09:01:54;98594.78;;;25.38;46.99
63009;BME280;49099;28.428;-16.488;2023-09-08T09:04:43;98594.97;;;25.49;47.17
63009;BME280;49099;28.428;-16.488;2023-09-08T09:07:32;98588.53;;;25.57;48.17
63009;BME280;49099;28.428;-16.488;2023-09-08T09:10:20;98591.00;;;25.66;51.07
63009;BME280;49099;28.428;-16.488;2023-09-08T09:13:08;98600.97;;;25.77;51.39
63009;BME280;49099;28.428;-16.488;2023-09-08T09:16:00;98592.81;;;25.77;51.39
63009;BME280;49099;28.428;-16.488;2023-09-08T09:18:56;98600.31;;;25.84;53.93
63009;BME280;49099;28.428;-16.488;2023-09-08T09:21:47;98602.00;;;25.92;53.31
63009;BME280;49099;28.428;-16.488;2023-09-08T09:24:39;98614.47;;;25.97;54.25
63009;BME280;49099;28.428;-16.488;2023-09-08T09:27:33;98609.53;;;26.02;54.48
63009;BME280;49099;28.428;-16.488;2023-09-08T09:30:25;98613.81;;;26.03;55.08
63009;BME280;49099;28.428;-16.488;2023-09-08T09:33:13;98610.72;;;26.05;55.36
63009;BME280;49099;28.428;-16.488;2023-09-08T09:36:00;98618.69;;;26.17;54.81
63009;BME280;49099;28.428;-16.488;2023-09-08T09:38:48;98620.69;;;26.20;54.85
63009;BME280;49099;28.428;-16.488;2023-09-08T09:41:36;98618.81;;;26.24;54.40
63009;BME280;49099;28.428;-16.488;2023-09-08T09:44:24;98622.69;;;26.23;52.06
63009;BME280;49099;28.428;-16.488;2023-09-08T09:47:13;98622.44;;;26.09;52.31
63009;BME280;49099;28.428;-16.488;2023-09-08T09:50:01;98625.34;;;25.97;56.49
63009;BME280;49099;28.428;-16.488;2023-09-08T09:52:49;98623.25;;;25.87;58.03
63009;BME280;49099;28.428;-16.488;2023-09-08T09:55:38;98629.38;;;25.83;58.99
63009;BME280;49099;28.428;-16.488;2023-09-08T09:58:26;98633.25;;;25.82;60.08
63009;BME280;49099;28.428;-16.488;2023-09-08T10:01:15;98629.38;;;25.83;59.87
63009;BME280;49099;28.428;-16.488;2023-09-08T10:04:05;98630.19;;;25.84;60.00
63009;BME280;49099;28.428;-16.488;2023-09-08T10:06:53;98634.09;;;25.87;59.95
63009;BME280;49099;28.428;-16.488;2023-09-08T10:09:41;98640.25;;;25.83;59.53
63009;BME280;49099;28.428;-16.488;2023-09-08T10:12:29;98644.84;;;25.79;56.90
63009;BME280;49099;28.428;-16.488;2023-09-08T10:15:23;98648.28;;;25.76;55.70
63009;BME280;49099;28.428;-16.488;2023-09-08T10:18:14;98645.25;;;25.81;53.34
63009;BME280;49099;28.428;-16.488;2023-09-08T10:21:04;98641.75;;;25.81;51.87
63009;BME280;49099;28.428;-16.488;2023-09-08T10:24:04;98636.81;;;25.87;50.08
63009;BME280;49099;28.428;-16.488;2023-09-08T10:27:14;98636.81;;;25.87;51.79
63009;BME280;49099;28.428;-16.488;2023-09-08T10:30:04;98640.69;;;25.86;56.01
63009;BME280;49099;28.428;-16.488;2023-09-08T10:32:53;98646.13;;;25.86;57.49
63009;BME280;49099;28.428;-16.488;2023-09-08T10:35:42;98644.56;;;25.85;57.54
63009;BME280;49099;28.428;-16.488;2023-09-08T10:38:34;98643.03;;;25.87;54.81
63009;BME280;49099;28.428;-16.488;2023-09-08T10:44:14;98646.59;;;25.91;50.21
63009;BME280;49099;28.428;-16.488;2023-09-08T10:47:02;98650.94;;;25.96;53.29
63009;BME280;49099;28.428;-16.488;2023-09-08T10:49:53;98644.44;;;26.00;54.16
63009;BME280;49099;28.428;-16.488;2023-09-08T10:53:05;98641.13;;;26.10;57.47
63009;BME280;49099;28.428;-16.488;2023-09-08T10:55:53;98648.06;;;26.08;58.39
63009;BME280;49099;28.428;-16.488;2023-09-08T10:58:49;98645.22;;;26.01;57.32
63009;BME280;49099;28.428;-16.488;2023-09-08T11:01:37;98648.66;;;25.98;60.16
63009;BME280;49099;28.428;-16.488;2023-09-08T11:04:25;98648.25;;;25.96;59.04
63009;BME280;49099;28.428;-16.488;2023-09-08T11:07:14;98651.06;;;26.03;58.51
63009;BME280;49099;28.428;-16.488;2023-09-08T11:10:02;98654.22;;;26.05;60.06
63009;BME280;49099;28.428;-16.488;2023-09-08T11:12:50;98651.94;;;26.07;60.67
63009;BME280;49099;28.428;-16.488;2023-09-08T11:15:38;98653.13;;;26.09;61.27
63009;BME280;49099;28.428;-16.488;2023-09-08T11:18:30;98650.47;;;26.13;60.67
63009;BME280;49099;28.428;-16.488;2023-09-08T11:21:18;98655.31;;;26.23;59.27
63009;BME280;49099;28.428;-16.488;2023-09-08T11:24:06;98646.53;;;26.33;59.09
63009;BME280;49099;28.428;-16.488;2023-09-08T11:26:54;98648.41;;;26.29;56.87
63009;BME280;49099;28.428;-16.488;2023-09-08T11:29:42;98651.56;;;26.31;59.74
63009;BME280;49099;28.428;-16.488;2023-09-08T11:32:34;98652.75;;;26.34;60.64
63009;BME280;49099;28.428;-16.488;2023-09-08T11:35:26;98647.69;;;26.32;60.63
63009;BME280;49099;28.428;-16.488;2023-09-08T11:38:14;98649.66;;;26.35;60.91
63009;BME280;49099;28.428;-16.488;2023-09-08T11:41:02;98652.38;;;26.35;62.31
63009;BME280;49099;28.428;-16.488;2023-09-08T11:43:50;98649.91;;;26.27;62.45
63009;BME280;49099;28.428;-16.488;2023-09-08T11:46:40;98655.31;;;26.23;62.40
63009;BME280;49099;28.428;-16.488;2023-09-08T11:49:36;98651.56;;;26.31;62.46
63009;BME280;49099;28.428;-16.488;2023-09-08T11:52:24;98653.72;;;26.45;62.62
63009;BME280;49099;28.428;-16.488;2023-09-08T11:55:12;98645.16;;;26.43;64.02
63009;BME280;49099;28.428;-16.488;2023-09-08T11:58:00;98652.81;;;26.37;64.11
63009;BME280;49099;28.428;-16.488;2023-09-08T12:00:48;98641.91;;;26.37;63.86
63009;BME280;49099;28.428;-16.488;2023-09-08T12:03:54;98637.88;;;26.51;62.37
63009;BME280;49099;28.428;-16.488;2023-09-08T12:06:42;98646.47;;;26.53;63.79
63009;BME280;49099;28.428;-16.488;2023-09-08T12:09:30;98644.91;;;26.52;64.28
63009;BME280;49099;28.428;-16.488;2023-09-08T12:12:18;98645.78;;;26.59;63.45
63009;BME280;49099;28.428;-16.488;2023-09-08T12:15:06;98644.13;;;26.51;65.07
63009;BME280;49099;28.428;-16.488;2023-09-08T12:17:53;98643.75;;;26.53;64.53
63009;BME280;49099;28.428;-16.488;2023-09-08T12:20:44;98650.44;;;26.59;64.43
63009;BME280;49099;28.428;-16.488;2023-09-08T12:23:31;98645.41;;;26.61;64.56
63009;BME280;49099;28.428;-16.488;2023-09-08T12:26:20;98649.66;;;26.58;64.96
63009;BME280;49099;28.428;-16.488;2023-09-08T12:29:12;98645.78;;;26.59;65.11
63009;BME280;49099;28.428;-16.488;2023-09-08T12:32:01;98642.28;;;26.59;65.32
63009;BME280;49099;28.428;-16.488;2023-09-08T12:34:48;98640.56;;;26.47;65.67
63009;BME280;49099;28.428;-16.488;2023-09-08T12:37:38;98643.53;;;26.65;65.23
63009;BME280;49099;28.428;-16.488;2023-09-08T12:40:27;98633.47;;;26.69;64.72
63009;BME280;49099;28.428;-16.488;2023-09-08T12:43:15;98636.66;;;26.71;65.03
63009;BME280;49099;28.428;-16.488;2023-09-08T12:46:17;98655.47;;;26.83;64.69
63009;BME280;49099;28.428;-16.488;2023-09-08T12:49:05;98648.56;;;26.89;64.70
63009;BME280;49099;28.428;-16.488;2023-09-08T12:51:56;98645.41;;;26.87;64.59
63009;BME280;49099;28.428;-16.488;2023-09-08T12:54:43;98647.63;;;26.78;64.94
63009;BME280;49099;28.428;-16.488;2023-09-08T12:57:31;98654.63;;;26.79;65.04
63009;BME280;49099;28.428;-16.488;2023-09-08T13:00:19;98646.88;;;26.81;65.48
63009;BME280;49099;28.428;-16.488;2023-09-08T13:03:07;98650.00;;;26.83;65.54
63009;BME280;49099;28.428;-16.488;2023-09-08T13:05:54;98647.00;;;26.88;65.54
63009;BME280;49099;28.428;-16.488;2023-09-08T13:08:42;98643.09;;;26.89;65.73
63009;BME280;49099;28.428;-16.488;2023-09-08T13:11:31;98643.00;;;26.82;65.95
63009;BME280;49099;28.428;-16.488;2023-09-08T13:14:18;98650.81;;;26.84;66.43
63009;BME280;49099;28.428;-16.488;2023-09-08T13:17:06;98646.56;;;26.86;66.02
63009;BME280;49099;28.428;-16.488;2023-09-08T13:19:53;98641.44;;;26.81;66.69
63009;BME280;49099;28.428;-16.488;2023-09-08T13:22:42;98643.66;;;26.72;66.87
63009;BME280;49099;28.428;-16.488;2023-09-08T13:25:30;98644.47;;;26.76;66.49
63009;BME280;49099;28.428;-16.488;2023-09-08T13:28:18;98636.00;;;26.81;66.01
63009;BME280;49099;28.428;-16.488;2023-09-08T13:31:06;98639.03;;;26.76;67.01
63009;BME280;49099;28.428;-16.488;2023-09-08T13:33:53;98633.94;;;26.71;67.11
63009;BME280;49099;28.428;-16.488;2023-09-08T13:36:41;98638.94;;;26.69;67.30
63009;BME280;49099;28.428;-16.488;2023-09-08T13:39:29;98630.34;;;26.67;67.42
63009;BME280;49099;28.428;-16.488;2023-09-08T13:42:16;98630.47;;;26.74;66.95
63009;BME280;49099;28.428;-16.488;2023-09-08T13:45:04;98625.97;;;26.85;66.57
63009;BME280;49099;28.428;-16.488;2023-09-08T13:47:52;98629.19;;;26.94;66.94
63009;BME280;49099;28.428;-16.488;2023-09-08T13:50:41;98626.09;;;26.96;66.63
63009;BME280;49099;28.428;-16.488;2023-09-08T13:53:30;98622.59;;;26.96;65.75
63009;BME280;49099;28.428;-16.488;2023-09-08T13:56:28;98617.56;;;26.98;65.21
63009;BME280;49099;28.428;-16.488;2023-09-08T13:59:20;98616.13;;;27.07;65.56
63009;BME280;49099;28.428;-16.488;2023-09-08T14:02:13;98616.50;;;27.06;64.80
63009;BME280;49099;28.428;-16.488;2023-09-08T14:05:03;98611.47;;;27.08;64.90
63009;BME280;49099;28.428;-16.488;2023-09-08T14:07:57;98608.44;;;27.13;64.00
63009;BME280;49099;28.428;-16.488;2023-09-08T14:11:01;98610.06;;;27.17;63.96
63009;BME280;49099;28.428;-16.488;2023-09-08T14:13:59;98613.97;;;27.20;64.10
63009;BME280;49099;28.428;-16.488;2023-09-08T14:16:47;98608.56;;;27.24;63.09
63009;BME280;49099;28.428;-16.488;2023-09-08T14:19:35;98599.16;;;27.17;61.60
63009;BME280;49099;28.428;-16.488;2023-09-08T14:22:23;98603.84;;;27.17;61.98
63009;BME280;49099;28.428;-16.488;2023-09-08T14:25:10;98600.56;;;27.75;60.97
63009;BME280;49099;28.428;-16.488;2023-09-08T14:27:58;98597.44;;;27.73;60.72
63009;BME280;49099;28.428;-16.488;2023-09-08T14:30:49;98593.69;;;27.88;61.49
63009;BME280;49099;28.428;-16.488;2023-09-08T14:33:38;98592.47;;;27.82;61.99
63009;BME280;49099;28.428;-16.488;2023-09-08T14:36:25;98585.69;;;28.10;61.07
63009;BME280;49099;28.428;-16.488;2023-09-08T14:39:13;98583.91;;;28.31;60.42